sensor_id;sensor_type;location;lat;lon;timestamp;pressure;altitude;pressure_sealevel;temperature;humidity
54554;BME280;40450;55.848;-3.572;2022-12-29T00:01:17;95662.33;;;2.23;95.53
54554;BME280;40450;55.848;-3.572;2022-12-29T00:03:48;95659.90;;;2.87;94.50
54554;BME280;40450;55.848;-3.572;2022-12-29T00:06:19;95662.14;;;1.85;95.95
54554;BME280;40450;55.848;-3.572;2022-12-29T00:08:49;95657.59;;;2.32;95.14
54554;BME280;40450;55.848;-3.572;2022-12-29T00:11:22;95662.70;;;1.87;96.15
54554;BME280;40450;55.848;-3.572;2022-12-29T00:13:49;95655.19;;;1.71;96.43
54554;BME280;40450;55.848;-3.572;2022-12-29T00:16:20;95653.81;;;1.88;96.15
54554;BME280;40450;55.848;-3.572;2022-12-29T00:18:51;95654.07;;;2.23;96.18
54554;BME280;40450;55.848;-3.572;2022-12-29T00:21:22;95657.19;;;1.96;96.54
54554;BME280;40450;55.848;-3.572;2022-12-29T00:23:51;95663.82;;;2.12;95.78
54554;BME280;40450;55.848;-3.572;2022-12-29T00:26:22;95669.88;;;1.71;96.38
54554;BME280;40450;55.848;-3.572;2022-12-29T00:28:52;95669.16;;;2.13;95.48
54554;BME280;40450;55.848;-3.572;2022-12-29T00:31:23;95660.33;;;2.22;95.64
54554;BME280;40450;55.848;-3.572;2022-12-29T00:33:53;95661.24;;;2.59;93.70
54554;BME280;40450;55.848;-3.572;2022-12-29T00:36:27;95662.14;;;2.50;94.17
54554;BME280;40450;55.848;-3.572;2022-12-29T00:38:56;95658.80;;;1.85;95.26
54554;BME280;40450;55.848;-3.572;2022-12-29T00:41:24;95659.04;;;0.93;95.79
54554;BME280;40450;55.848;-3.572;2022-12-29T00:43:54;95648.63;;;1.40;96.20
54554;BME280;40450;55.848;-3.572;2022-12-29T00:46:25;95655.96;;;0.84;96.16
54554;BME280;40450;55.848;-3.572;2022-12-29T00:48:55;95657.07;;;0.76;96.86
54554;BME280;40450;55.848;-3.572;2022-12-29T00:51:26;95665.01;;;1.60;95.55
54554;BME280;40450;55.848;-3.572;2022-12-29T00:53:56;95669.49;;;1.05;96.36
54554;BME280;40450;55.848;-3.572;2022-12-29T00:56:26;95676.94;;;1.39;96.03
54554;BME280;40450;55.848;-3.572;2022-12-29T00:59:00;95686.73;;;1.97;95.40
54554;BME280;40450;55.848;-3.572;2022-12-29T01:01:27;95687.52;;;1.66;95.32
54554;BME280;40450;55.848;-3.572;2022-12-29T01:03:58;95689.92;;;1.13;96.19
54554;BME280;40450;55.848;-3.572;2022-12-29T01:06:28;95703.00;;;1.13;96.24
54554;BME280;40450;55.848;-3.572;2022-12-29T01:08:59;95706.69;;;1.52;95.39
54554;BME280;40450;55.848;-3.572;2022-12-29T01:11:29;95707.79;;;2.29;94.17
54554;BME280;40450;55.848;-3.572;2022-12-29T01:14:00;95716.26;;;2.71;93.01
54554;BME280;40450;55.848;-3.572;2022-12-29T01:16:30;95717.43;;;2.24;93.03
54554;BME280;40450;55.848;-3.572;2022-12-29T01:19:00;95717.48;;;3.39;91.61
54554;BME280;40450;55.848;-3.572;2022-12-29T01:21:31;95714.26;;;3.16;91.80
54554;BME280;40450;55.848;-3.572;2022-12-29T01:24:01;95735.41;;;1.60;95.09
54554;BME280;40450;55.848;-3.572;2022-12-29T01:26:31;95722.23;;;1.02;96.30
54554;BME280;40450;55.848;-3.572;2022-12-29T01:29:02;95725.29;;;1.31;96.14
54554;BME280;40450;55.848;-3.572;2022-12-29T01:31:32;95738.48;;;1.84;95.04
54554;BME280;40450;55.848;-3.572;2022-12-29T01:34:03;95739.77;;;1.00;96.51
54554;BME280;40450;55.848;-3.572;2022-12-29T01:36:33;95736.06;;;1.96;95.03
54554;BME280;40450;55.848;-3.572;2022-12-29T01:39:03;95743.08;;;1.69;95.49
54554;BME280;40450;55.848;-3.572;2022-12-29T01:41:34;95754.24;;;1.61;96.01
54554;BME280;40450;55.848;-3.572;2022-12-29T01:46:37;95752.04;;;1.08;96.70
54554;BME280;40450;55.848;-3.572;2022-12-29T01:49:12;95744.93;;;1.91;94.96
54554;BME280;40450;55.848;-3.572;2022-12-29T01:51:37;95765.07;;;1.36;95.73
54554;BME280;40450;55.848;-3.572;2022-12-29T01:54:09;95763.93;;;1.26;96.19
54554;BME280;40450;55.848;-3.572;2022-12-29T01:56:36;95760.50;;;1.62;95.92
54554;BME280;40450;55.848;-3.572;2022-12-29T01:59:10;95768.15;;;1.56;95.85
54554;BME280;40450;55.848;-3.572;2022-12-29T02:01:37;95771.89;;;1.79;95.12
54554;BME280;40450;55.848;-3.572;2022-12-29T02:04:11;95776.89;;;1.33;95.53
54554;BME280;40450;55.848;-3.572;2022-12-29T02:06:43;95773.77;;;2.02;94.81
54554;BME280;40450;55.848;-3.572;2022-12-29T02:09:08;95781.64;;;2.55;93.31
54554;BME280;40450;55.848;-3.572;2022-12-29T02:11:39;95793.14;;;1.80;93.90
54554;BME280;40450;55.848;-3.572;2022-12-29T02:14:11;95787.08;;;1.61;94.34
54554;BME280;40450;55.848;-3.572;2022-12-29T02:16:50;95798.96;;;1.93;93.79
54554;BME280;40450;55.848;-3.572;2022-12-29T02:21:51;95811.85;;;0.60;96.41
54554;BME280;40450;55.848;-3.572;2022-12-29T02:31:45;95832.50;;;1.96;93.73
54554;BME280;40450;55.848;-3.572;2022-12-29T02:34:20;95844.29;;;1.61;94.28
54554;BME280;40450;55.848;-3.572;2022-12-29T02:36:45;95841.80;;;2.13;93.78
54554;BME280;40450;55.848;-3.572;2022-12-29T02:39:20;95847.25;;;2.08;93.54
54554;BME280;40450;55.848;-3.572;2022-12-29T02:41:52;95843.66;;;2.59;92.84
54554;BME280;40450;55.848;-3.572;2022-12-29T02:44:18;95841.47;;;2.33;93.02
54554;BME280;40450;55.848;-3.572;2022-12-29T02:46:48;95850.90;;;2.48;92.92
54554;BME280;40450;55.848;-3.572;2022-12-29T02:49:22;95847.48;;;2.69;92.68
54554;BME280;40450;55.848;-3.572;2022-12-29T02:51:51;95852.54;;;2.83;92.40
54554;BME280;40450;55.848;-3.572;2022-12-29T02:54:17;95849.36;;;2.97;92.00
54554;BME280;40450;55.848;-3.572;2022-12-29T02:56:46;95852.54;;;2.63;92.86
54554;BME280;40450;55.848;-3.572;2022-12-29T02:59:17;95846.71;;;3.12;91.88
54554;BME280;40450;55.848;-3.572;2022-12-29T03:02:01;95850.70;;;3.71;90.10
54554;BME280;40450;55.848;-3.572;2022-12-29T03:04:26;95866.45;;;2.46;92.01
54554;BME280;40450;55.848;-3.572;2022-12-29T03:06:53;95862.29;;;3.39;90.83
54554;BME280;40450;55.848;-3.572;2022-12-29T03:09:26;95873.06;;;3.14;90.68
54554;BME280;40450;55.848;-3.572;2022-12-29T03:11:56;95872.66;;;2.60;91.91
54554;BME280;40450;55.848;-3.572;2022-12-29T03:14:26;95875.81;;;2.49;92.40
54554;BME280;40450;55.848;-3.572;2022-12-29T03:16:53;95885.52;;;2.29;92.02
54554;BME280;40450;55.848;-3.572;2022-12-29T03:19:23;95884.07;;;1.77;92.75
54554;BME280;40450;55.848;-3.572;2022-12-29T03:21:55;95873.98;;;1.31;93.83
54554;BME280;40450;55.848;-3.572;2022-12-29T03:24:25;95884.56;;;1.74;93.58
54554;BME280;40450;55.848;-3.572;2022-12-29T03:26:54;95887.53;;;2.17;92.93
54554;BME280;40450;55.848;-3.572;2022-12-29T03:29:21;95890.97;;;2.06;93.24
54554;BME280;40450;55.848;-3.572;2022-12-29T03:31:53;95892.74;;;2.31;92.92
54554;BME280;40450;55.848;-3.572;2022-12-29T03:34:22;95904.59;;;2.03;93.23
54554;BME280;40450;55.848;-3.572;2022-12-29T03:36:55;95900.24;;;3.01;91.89
54554;BME280;40450;55.848;-3.572;2022-12-29T03:39:24;95902.14;;;3.61;90.10
54554;BME280;40450;55.848;-3.572;2022-12-29T03:41:58;95904.57;;;2.57;92.07
54554;BME280;40450;55.848;-3.572;2022-12-29T03:44:32;95914.79;;;2.36;93.15
54554;BME280;40450;55.848;-3.572;2022-12-29T03:46:54;95916.48;;;2.53;92.36
54554;BME280;40450;55.848;-3.572;2022-12-29T03:49:25;95924.31;;;2.80;91.73
54554;BME280;40450;55.848;-3.572;2022-12-29T03:51:55;95921.01;;;1.82;93.94
54554;BME280;40450;55.848;-3.572;2022-12-29T03:54:25;95924.22;;;2.44;92.48
54554;BME280;40450;55.848;-3.572;2022-12-29T03:56:56;95935.43;;;2.87;91.42
54554;BME280;40450;55.848;-3.572;2022-12-29T03:59:26;95940.77;;;2.52;91.92
54554;BME280;40450;55.848;-3.572;2022-12-29T04:01:57;95952.72;;;2.50;91.79
54554;BME280;40450;55.848;-3.572;2022-12-29T04:04:27;95957.27;;;2.67;91.61
54554;BME280;40450;55.848;-3.572;2022-12-29T04:06:58;95960.07;;;1.94;93.34
54554;BME280;40450;55.848;-3.572;2022-12-29T04:09:33;95962.51;;;2.52;92.00
54554;BME280;40450;55.848;-3.572;2022-12-29T04:11:58;95970.29;;;2.62;92.16
54554;BME280;40450;55.848;-3.572;2022-12-29T04:14:29;95981.05;;;3.07;91.45
54554;BME280;40450;55.848;-3.572;2022-12-29T04:16:59;95985.40;;;3.05;90.64
54554;BME280;40450;55.848;-3.572;2022-12-29T04:19:30;95985.50;;;3.06;91.04
54554;BME280;40450;55.848;-3.572;2022-12-29T04:22:00;95984.12;;;2.70;91.71
54554;BME280;40450;55.848;-3.572;2022-12-29T04:24:30;95989.01;;;3.37;90.43
54554;BME280;40450;55.848;-3.572;2022-12-29T04:27:01;95987.58;;;3.37;90.08
54554;BME280;40450;55.848;-3.572;2022-12-29T04:29:31;95991.10;;;3.41;90.43
54554;BME280;40450;55.848;-3.572;2022-12-29T04:32:01;95997.58;;;3.68;89.47
54554;BME280;40450;55.848;-3.572;2022-12-29T04:34:32;96008.64;;;3.58;89.09
54554;BME280;40450;55.848;-3.572;2022-12-29T04:37:02;96013.64;;;4.32;88.38
54554;BME280;40450;55.848;-3.572;2022-12-29T04:39:33;96011.73;;;4.20;88.44
54554;BME280;40450;55.848;-3.572;2022-12-29T04:42:03;96019.06;;;3.96;88.99
54554;BME280;40450;55.848;-3.572;2022-12-29T04:44:33;96018.25;;;3.89;88.98
54554;BME280;40450;55.848;-3.572;2022-12-29T04:47:04;96020.79;;;3.97;88.99
54554;BME280;40450;55.848;-3.572;2022-12-29T04:49:34;96034.25;;;3.91;88.74
54554;BME280;40450;55.848;-3.572;2022-12-29T04:52:05;96032.90;;;3.65;89.73
54554;BME280;40450;55.848;-3.572;2022-12-29T04:54:35;96032.65;;;4.03;88.82
54554;BME280;40450;55.848;-3.572;2022-12-29T04:57:05;96044.05;;;3.96;89.00
54554;BME280;40450;55.848;-3.572;2022-12-29T04:59:36;96043.11;;;3.41;89.71
54554;BME280;40450;55.848;-3.572;2022-12-29T05:02:07;96051.67;;;3.23;90.63
54554;BME280;40450;55.848;-3.572;2022-12-29T05:04:37;96054.89;;;3.25;90.17
54554;BME280;40450;55.848;-3.572;2022-12-29T05:07:07;96063.66;;;3.29;90.13
54554;BME280;40450;55.848;-3.572;2022-12-29T05:09:37;96057.58;;;3.71;89.28
54554;BME280;40450;55.848;-3.572;2022-12-29T05:12:08;96055.88;;;4.44;87.97
54554;BME280;40450;55.848;-3.572;2022-12-29T05:14:38;96055.40;;;4.70;87.18
54554;BME280;40450;55.848;-3.572;2022-12-29T05:17:08;96056.01;;;4.37;88.04
54554;BME280;40450;55.848;-3.572;2022-12-29T05:19:39;96059.36;;;4.90;86.16
54554;BME280;40450;55.848;-3.572;2022-12-29T05:22:09;96057.95;;;5.02;85.74
54554;BME280;40450;55.848;-3.572;2022-12-29T05:24:40;96056.48;;;4.56;86.63
54554;BME280;40450;55.848;-3.572;2022-12-29T05:27:10;96062.71;;;4.76;86.17
54554;BME280;40450;55.848;-3.572;2022-12-29T05:29:40;96068.23;;;4.77;85.89
54554;BME280;40450;55.848;-3.572;2022-12-29T05:32:11;96081.76;;;4.22;87.42
54554;BME280;40450;55.848;-3.572;2022-12-29T05:34:41;96081.95;;;4.34;87.30
54554;BME280;40450;55.848;-3.572;2022-12-29T05:37:12;96086.55;;;4.38;87.40
54554;BME280;40450;55.848;-3.572;2022-12-29T05:39:42;96077.34;;;4.70;87.15
54554;BME280;40450;55.848;-3.572;2022-12-29T05:42:12;96090.05;;;4.40;88.09
54554;BME280;40450;55.848;-3.572;2022-12-29T05:44:43;96097.54;;;4.30;88.44
54554;BME280;40450;55.848;-3.572;2022-12-29T05:47:13;96103.09;;;4.13;89.79
54554;BME280;40450;55.848;-3.572;2022-12-29T05:49:44;96108.16;;;3.64;91.47
54554;BME280;40450;55.848;-3.572;2022-12-29T05:52:14;96109.36;;;3.91;91.32
54554;BME280;40450;55.848;-3.572;2022-12-29T05:54:44;96115.13;;;4.29;90.61
54554;BME280;40450;55.848;-3.572;2022-12-29T05:57:15;96119.61;;;4.29;90.75
54554;BME280;40450;55.848;-3.572;2022-12-29T05:59:45;96122.80;;;4.45;90.34
54554;BME280;40450;55.848;-3.572;2022-12-29T06:02:16;96135.25;;;4.26;90.93
54554;BME280;40450;55.848;-3.572;2022-12-29T06:04:46;96130.88;;;5.54;88.71
54554;BME280;40450;55.848;-3.572;2022-12-29T06:07:17;96142.01;;;4.91;89.69
54554;BME280;40450;55.848;-3.572;2022-12-29T06:09:47;96139.01;;;5.76;88.48
54554;BME280;40450;55.848;-3.572;2022-12-29T06:12:17;96145.16;;;5.40;89.11
54554;BME280;40450;55.848;-3.572;2022-12-29T06:14:47;96150.37;;;5.71;88.92
54554;BME280;40450;55.848;-3.572;2022-12-29T06:17:18;96144.63;;;5.98;87.76
54554;BME280;40450;55.848;-3.572;2022-12-29T06:19:48;96154.90;;;5.97;87.79
54554;BME280;40450;55.848;-3.572;2022-12-29T06:22:19;96163.59;;;6.22;87.71
54554;BME280;40450;55.848;-3.572;2022-12-29T06:24:49;96167.35;;;6.05;87.63
54554;BME280;40450;55.848;-3.572;2022-12-29T06:27:19;96164.50;;;6.03;87.33
54554;BME280;40450;55.848;-3.572;2022-12-29T06:29:50;96166.88;;;5.80;87.56
54554;BME280;40450;55.848;-3.572;2022-12-29T06:32:21;96173.69;;;4.58;90.67
54554;BME280;40450;55.848;-3.572;2022-12-29T06:34:51;96184.96;;;4.77;90.30
54554;BME280;40450;55.848;-3.572;2022-12-29T06:37:21;96171.12;;;5.54;89.00
54554;BME280;40450;55.848;-3.572;2022-12-29T06:39:52;96179.32;;;5.31;89.30
54554;BME280;40450;55.848;-3.572;2022-12-29T06:42:22;96185.68;;;5.07;90.04
54554;BME280;40450;55.848;-3.572;2022-12-29T06:44:52;96192.71;;;3.76;93.39
54554;BME280;40450;55.848;-3.572;2022-12-29T06:47:23;96205.65;;;3.86;93.34
54554;BME280;40450;55.848;-3.572;2022-12-29T06:49:53;96204.28;;;2.43;96.17
54554;BME280;40450;55.848;-3.572;2022-12-29T06:52:24;96199.94;;;2.37;96.31
54554;BME280;40450;55.848;-3.572;2022-12-29T06:54:54;96200.59;;;2.97;95.10
54554;BME280;40450;55.848;-3.572;2022-12-29T06:57:24;96194.41;;;3.20;94.46
54554;BME280;40450;55.848;-3.572;2022-12-29T06:59:55;96195.44;;;3.40;94.23
54554;BME280;40450;55.848;-3.572;2022-12-29T07:02:25;96199.80;;;3.31;94.12
54554;BME280;40450;55.848;-3.572;2022-12-29T07:05:03;96201.05;;;2.58;95.23
54554;BME280;40450;55.848;-3.572;2022-12-29T07:07:26;96206.80;;;1.94;96.65
54554;BME280;40450;55.848;-3.572;2022-12-29T07:09:56;96210.07;;;0.36;98.90
54554;BME280;40450;55.848;-3.572;2022-12-29T07:12:27;96209.45;;;0.53;98.74
54554;BME280;40450;55.848;-3.572;2022-12-29T07:14:57;96226.16;;;0.82;98.50
54554;BME280;40450;55.848;-3.572;2022-12-29T07:17:28;96224.23;;;0.96;98.24
54554;BME280;40450;55.848;-3.572;2022-12-29T07:19:58;96223.03;;;0.95;98.28
54554;BME280;40450;55.848;-3.572;2022-12-29T07:22:28;96231.04;;;1.18;98.12
54554;BME280;40450;55.848;-3.572;2022-12-29T07:24:59;96231.84;;;0.99;98.38
54554;BME280;40450;55.848;-3.572;2022-12-29T07:27:29;96241.92;;;1.66;97.54
54554;BME280;40450;55.848;-3.572;2022-12-29T07:30:00;96234.74;;;2.17;96.47
54554;BME280;40450;55.848;-3.572;2022-12-29T07:32:36;96242.70;;;1.78;96.98
54554;BME280;40450;55.848;-3.572;2022-12-29T07:35:01;96247.00;;;1.99;96.91
54554;BME280;40450;55.848;-3.572;2022-12-29T07:37:31;96256.23;;;2.15;96.62
54554;BME280;40450;55.848;-3.572;2022-12-29T07:40:02;96253.24;;;2.27;96.21
54554;BME280;40450;55.848;-3.572;2022-12-29T07:42:32;96257.77;;;2.31;96.47
54554;BME280;40450;55.848;-3.572;2022-12-29T07:45:03;96273.56;;;1.85;97.26
54554;BME280;40450;55.848;-3.572;2022-12-29T07:47:33;96269.10;;;1.59;97.87
54554;BME280;40450;55.848;-3.572;2022-12-29T07:50:04;96274.73;;;1.89;96.73
54554;BME280;40450;55.848;-3.572;2022-12-29T07:52:33;96278.44;;;1.73;97.44
54554;BME280;40450;55.848;-3.572;2022-12-29T07:55:05;96281.60;;;1.16;98.34
54554;BME280;40450;55.848;-3.572;2022-12-29T07:57:34;96290.10;;;1.13;98.53
54554;BME280;40450;55.848;-3.572;2022-12-29T08:00:06;96279.63;;;1.23;98.01
54554;BME280;40450;55.848;-3.572;2022-12-29T08:02:35;96289.99;;;1.24;98.01
54554;BME280;40450;55.848;-3.572;2022-12-29T08:05:06;96298.64;;;1.57;97.49
54554;BME280;40450;55.848;-3.572;2022-12-29T08:07:36;96304.00;;;1.11;98.06
54554;BME280;40450;55.848;-3.572;2022-12-29T08:10:07;96316.06;;;0.99;98.31
54554;BME280;40450;55.848;-3.572;2022-12-29T08:12:38;96327.95;;;1.03;98.08
54554;BME280;40450;55.848;-3.572;2022-12-29T08:15:10;96322.82;;;1.53;97.69
54554;BME280;40450;55.848;-3.572;2022-12-29T08:17:39;96335.44;;;1.50;97.56
54554;BME280;40450;55.848;-3.572;2022-12-29T08:20:09;96334.70;;;2.28;95.95
54554;BME280;40450;55.848;-3.572;2022-12-29T08:22:39;96330.15;;;2.36;95.67
54554;BME280;40450;55.848;-3.572;2022-12-29T08:25:09;96327.65;;;2.58;95.39
54554;BME280;40450;55.848;-3.572;2022-12-29T08:27:39;96335.51;;;1.65;95.88
54554;BME280;40450;55.848;-3.572;2022-12-29T08:30:11;96349.46;;;2.12;95.21
54554;BME280;40450;55.848;-3.572;2022-12-29T08:32:40;96363.95;;;2.42;95.24
54554;BME280;40450;55.848;-3.572;2022-12-29T08:35:11;96364.71;;;3.33;92.94
54554;BME280;40450;55.848;-3.572;2022-12-29T08:37:41;96367.62;;;3.80;92.13
54554;BME280;40450;55.848;-3.572;2022-12-29T08:40:12;96378.36;;;3.86;92.74
54554;BME280;40450;55.848;-3.572;2022-12-29T08:42:43;96379.14;;;3.99;92.04
54554;BME280;40450;55.848;-3.572;2022-12-29T08:45:13;96386.61;;;3.25;93.22
54554;BME280;40450;55.848;-3.572;2022-12-29T08:47:43;96392.69;;;2.53;94.43
54554;BME280;40450;55.848;-3.572;2022-12-29T08:50:14;96403.27;;;1.60;96.00
54554;BME280;40450;55.848;-3.572;2022-12-29T08:52:44;96410.83;;;0.35;97.15
54554;BME280;40450;55.848;-3.572;2022-12-29T08:55:14;96418.61;;;0.61;97.37
54554;BME280;40450;55.848;-3.572;2022-12-29T08:57:45;96411.18;;;0.22;97.50
54554;BME280;40450;55.848;-3.572;2022-12-29T09:02:48;96397.71;;;2.13;94.28
54554;BME280;40450;55.848;-3.572;2022-12-29T09:05:16;96397.75;;;3.47;92.14
54554;BME280;40450;55.848;-3.572;2022-12-29T09:07:46;96396.11;;;2.79;92.67
54554;BME280;40450;55.848;-3.572;2022-12-29T09:10:17;96400.69;;;2.52;93.20
54554;BME280;40450;55.848;-3.572;2022-12-29T09:12:47;96404.20;;;2.97;93.31
54554;BME280;40450;55.848;-3.572;2022-12-29T09:15:17;96403.44;;;2.92;93.44
54554;BME280;40450;55.848;-3.572;2022-12-29T09:17:57;96411.22;;;2.90;93.94
54554;BME280;40450;55.848;-3.572;2022-12-29T09:20:19;96413.18;;;2.73;93.16
54554;BME280;40450;55.848;-3.572;2022-12-29T09:22:49;96410.57;;;3.02;93.24
54554;BME280;40450;55.848;-3.572;2022-12-29T09:25:20;96412.42;;;2.89;93.36
54554;BME280;40450;55.848;-3.572;2022-12-29T09:27:50;96421.05;;;3.47;92.74
54554;BME280;40450;55.848;-3.572;2022-12-29T09:30:22;96423.14;;;3.80;91.84
54554;BME280;40450;55.848;-3.572;2022-12-29T09:32:50;96423.93;;;3.75;92.00
54554;BME280;40450;55.848;-3.572;2022-12-29T09:35:21;96423.17;;;3.63;91.54
54554;BME280;40450;55.848;-3.572;2022-12-29T09:37:51;96422.25;;;3.05;92.77
54554;BME280;40450;55.848;-3.572;2022-12-29T09:40:26;96423.21;;;3.82;91.81
54554;BME280;40450;55.848;-3.572;2022-12-29T09:43:05;96426.91;;;3.91;91.82
54554;BME280;40450;55.848;-3.572;2022-12-29T09:45:28;96429.42;;;3.81;91.51
54554;BME280;40450;55.848;-3.572;2022-12-29T09:47:54;96426.74;;;3.35;92.45
54554;BME280;40450;55.848;-3.572;2022-12-29T09:50:26;96430.98;;;3.05;93.06
54554;BME280;40450;55.848;-3.572;2022-12-29T09:52:58;96433.86;;;2.82;93.32
54554;BME280;40450;55.848;-3.572;2022-12-29T09:55:32;96432.07;;;2.67;94.05
54554;BME280;40450;55.848;-3.572;2022-12-29T09:57:57;96440.95;;;1.82;96.32
54554;BME280;40450;55.848;-3.572;2022-12-29T10:00:33;96446.54;;;1.55;96.97
54554;BME280;40450;55.848;-3.572;2022-12-29T10:02:59;96446.21;;;1.15;98.00
54554;BME280;40450;55.848;-3.572;2022-12-29T10:05:32;96449.82;;;0.38;98.72
54554;BME280;40450;55.848;-3.572;2022-12-29T10:08:10;96452.29;;;0.89;98.14
54554;BME280;40450;55.848;-3.572;2022-12-29T10:10:34;96455.30;;;0.24;98.61
54554;BME280;40450;55.848;-3.572;2022-12-29T10:13:05;96463.10;;;0.51;99.02
54554;BME280;40450;55.848;-3.572;2022-12-29T10:15:39;96466.37;;;0.82;98.68
54554;BME280;40450;55.848;-3.572;2022-12-29T10:18:02;96466.70;;;0.40;98.84
54554;BME280;40450;55.848;-3.572;2022-12-29T10:20:31;96472.00;;;0.49;99.02
54554;BME280;40450;55.848;-3.572;2022-12-29T10:23:10;96463.61;;;0.86;98.56
54554;BME280;40450;55.848;-3.572;2022-12-29T10:25:34;96462.39;;;0.28;99.29
54554;BME280;40450;55.848;-3.572;2022-12-29T10:28:03;96458.92;;;0.24;99.53
54554;BME280;40450;55.848;-3.572;2022-12-29T10:30:33;96464.62;;;-1.28;100.00
54554;BME280;40450;55.848;-3.572;2022-12-29T10:33:04;96466.79;;;-1.19;100.00
54554;BME280;40450;55.848;-3.572;2022-12-29T10:35:35;96470.15;;;-1.09;100.00
54554;BME280;40450;55.848;-3.572;2022-12-29T10:38:09;96468.57;;;-1.01;100.00
54554;BME280;40450;55.848;-3.572;2022-12-29T10:40:38;96469.61;;;-0.64;100.00
54554;BME280;40450;55.848;-3.572;2022-12-29T10:43:11;96463.75;;;-1.11;100.00
54554;BME280;40450;55.848;-3.572;2022-12-29T10:45:33;96471.14;;;-1.02;100.00
54554;BME280;40450;55.848;-3.572;2022-12-29T10:48:06;96465.81;;;-1.43;100.00
54554;BME280;40450;55.848;-3.572;2022-12-29T10:50:35;96460.90;;;-1.05;100.00
54554;BME280;40450;55.848;-3.572;2022-12-29T10:53:05;96460.72;;;-1.54;100.00
54554;BME280;40450;55.848;-3.572;2022-12-29T10:55:38;96468.33;;;-1.16;100.00
54554;BME280;40450;55.848;-3.572;2022-12-29T10:58:06;96466.11;;;-0.57;100.00
54554;BME280;40450;55.848;-3.572;2022-12-29T11:00:35;96456.83;;;-0.40;100.00
54554;BME280;40450;55.848;-3.572;2022-12-29T11:03:21;96463.32;;;-0.71;100.00
54554;BME280;40450;55.848;-3.572;2022-12-29T11:05:39;96457.33;;;-1.07;100.00
54554;BME280;40450;55.848;-3.572;2022-12-29T11:08:11;96458.35;;;-0.66;100.00
54554;BME280;40450;55.848;-3.572;2022-12-29T11:10:40;96455.38;;;-0.06;99.60
54554;BME280;40450;55.848;-3.572;2022-12-29T11:13:13;96452.90;;;-0.88;100.00
54554;BME280;40450;55.848;-3.572;2022-12-29T11:15:39;96453.73;;;-0.43;100.00
54554;BME280;40450;55.848;-3.572;2022-12-29T11:18:18;96450.89;;;-0.71;100.00
54554;BME280;40450;55.848;-3.572;2022-12-29T11:20:40;96452.17;;;-0.71;100.00
54554;BME280;40450;55.848;-3.572;2022-12-29T11:25:40;96444.79;;;-0.98;100.00
54554;BME280;40450;55.848;-3.572;2022-12-29T11:28:15;96446.65;;;-1.13;100.00
54554;BME280;40450;55.848;-3.572;2022-12-29T11:30:42;96448.71;;;-0.59;100.00
54554;BME280;40450;55.848;-3.572;2022-12-29T11:33:12;96444.17;;;-0.83;100.00
54554;BME280;40450;55.848;-3.572;2022-12-29T11:35:43;96437.85;;;-0.42;100.00
54554;BME280;40450;55.848;-3.572;2022-12-29T11:38:20;96443.62;;;-0.98;100.00
54554;BME280;40450;55.848;-3.572;2022-12-29T11:40:43;96440.21;;;-1.02;100.00
54554;BME280;40450;55.848;-3.572;2022-12-29T11:43:21;96425.91;;;-1.10;100.00
54554;BME280;40450;55.848;-3.572;2022-12-29T11:45:46;96432.39;;;-0.29;99.75
54554;BME280;40450;55.848;-3.572;2022-12-29T11:48:17;96432.05;;;-0.24;99.56
54554;BME280;40450;55.848;-3.572;2022-12-29T11:50:50;96427.49;;;-1.05;100.00
54554;BME280;40450;55.848;-3.572;2022-12-29T11:53:17;96426.92;;;-0.89;100.00
54554;BME280;40450;55.848;-3.572;2022-12-29T11:55:50;96430.63;;;-1.37;100.00
54554;BME280;40450;55.848;-3.572;2022-12-29T11:58:16;96425.48;;;-1.56;100.00
54554;BME280;40450;55.848;-3.572;2022-12-29T12:00:46;96424.45;;;-1.32;100.00
54554;BME280;40450;55.848;-3.572;2022-12-29T12:03:18;96431.95;;;-0.99;100.00
54554;BME280;40450;55.848;-3.572;2022-12-29T12:05:52;96426.32;;;-1.24;100.00
54554;BME280;40450;55.848;-3.572;2022-12-29T12:08:18;96426.65;;;-1.20;100.00
54554;BME280;40450;55.848;-3.572;2022-12-29T12:10:48;96430.98;;;-0.97;100.00
54554;BME280;40450;55.848;-3.572;2022-12-29T12:13:20;96433.40;;;-2.13;100.00
54554;BME280;40450;55.848;-3.572;2022-12-29T12:15:50;96434.27;;;-2.49;100.00
54554;BME280;40450;55.848;-3.572;2022-12-29T12:18:26;96435.06;;;-1.78;100.00
54554;BME280;40450;55.848;-3.572;2022-12-29T12:20:52;96429.46;;;-1.93;100.00
54554;BME280;40450;55.848;-3.572;2022-12-29T12:25:56;96428.21;;;-0.93;100.00
54554;BME280;40450;55.848;-3.572;2022-12-29T12:28:23;96431.67;;;-1.27;100.00
54554;BME280;40450;55.848;-3.572;2022-12-29T12:30:54;96435.47;;;-0.89;100.00
54554;BME280;40450;55.848;-3.572;2022-12-29T12:33:27;96436.23;;;-1.02;100.00
54554;BME280;40450;55.848;-3.572;2022-12-29T12:36:01;96435.19;;;-0.64;100.00
54554;BME280;40450;55.848;-3.572;2022-12-29T12:38:27;96432.10;;;-0.32;100.00
54554;BME280;40450;55.848;-3.572;2022-12-29T12:40:59;96439.34;;;-0.11;100.00
54554;BME280;40450;55.848;-3.572;2022-12-29T12:43:33;96440.09;;;-0.89;100.00
54554;BME280;40450;55.848;-3.572;2022-12-29T12:45:59;96435.04;;;-1.35;100.00
54554;BME280;40450;55.848;-3.572;2022-12-29T12:48:38;96439.35;;;-0.90;100.00
54554;BME280;40450;55.848;-3.572;2022-12-29T12:50:59;96435.62;;;-0.36;100.00
54554;BME280;40450;55.848;-3.572;2022-12-29T12:53:35;96438.74;;;-0.67;100.00
54554;BME280;40450;55.848;-3.572;2022-12-29T12:56:06;96442.44;;;-0.98;100.00
54554;BME280;40450;55.848;-3.572;2022-12-29T12:58:30;96436.65;;;-0.25;100.00
54554;BME280;40450;55.848;-3.572;2022-12-29T13:01:04;96442.50;;;0.61;100.00
54554;BME280;40450;55.848;-3.572;2022-12-29T13:03:41;96439.86;;;0.19;100.00
54554;BME280;40450;55.848;-3.572;2022-12-29T13:06:05;96448.97;;;0.65;99.57
54554;BME280;40450;55.848;-3.572;2022-12-29T13:08:38;96451.26;;;0.67;99.64
54554;BME280;40450;55.848;-3.572;2022-12-29T13:10:59;96450.37;;;1.06;99.12
54554;BME280;40450;55.848;-3.572;2022-12-29T13:13:40;96457.39;;;0.59;99.28
54554;BME280;40450;55.848;-3.572;2022-12-29T13:16:03;96459.05;;;1.40;98.50
54554;BME280;40450;55.848;-3.572;2022-12-29T13:18:33;96459.66;;;1.59;98.00
54554;BME280;40450;55.848;-3.572;2022-12-29T13:21:02;96462.31;;;0.27;98.77
54554;BME280;40450;55.848;-3.572;2022-12-29T13:23:34;96472.67;;;0.28;99.56
54554;BME280;40450;55.848;-3.572;2022-12-29T13:26:05;96477.97;;;-0.17;99.49
54554;BME280;40450;55.848;-3.572;2022-12-29T13:28:34;96488.94;;;0.08;98.93
54554;BME280;40450;55.848;-3.572;2022-12-29T13:31:02;96484.50;;;-0.18;99.12
54554;BME280;40450;55.848;-3.572;2022-12-29T13:33:38;96488.47;;;0.19;98.88